Time;durP1;ratioP1;P1;durP2;ratioP2;P2;SDS_P1;SDS_P2;PMS_P1;PMS_P2;Temp;Humidity;BMP_temperature;BMP_pressure;BME280_temperature;BME280_humidity;BME280_pressure;Samples;Min_cycle;Max_cycle;Signal;HPM_P1;HPM_P2
2023/12/13 00:01:45;;;;;;;26.05;15.77;;;;;;;;;;5075347;28;20036;-77
2023/12/13 00:04:11;;;;;;;25.30;14.43;;;;;;;;;;5092384;28;20135;-77
2023/12/13 00:06:38;;;;;;;24.73;14.82;;;;;;;;;;5093720;28;20081;-77
2023/12/13 00:09:04;;;;;;;26.23;14.35;;;;;;;;;;5075372;28;20044;-77
2023/12/13 00:11:30;;;;;;;27.73;15.45;;;;;;;;;;5091914;28;20036;-77
2023/12/13 00:13:56;;;;;;;25.17;14.68;;;;;;;;;;5092272;28;20094;-77
2023/12/13 00:16:23;;;;;;;27.27;15.25;;;;;;;;;;5091773;28;20506;-77
2023/12/13 00:18:49;;;;;;;28.02;15.05;;;;;;;;;;5092063;28;20048;-77
2023/12/13 00:21:17;;;;;;;25.88;14.10;;;;;;;;;;5074576;28;20480;-77
2023/12/13 00:23:44;;;;;;;27.25;14.45;;;;;;;;;;5092027;28;20123;-77
2023/12/13 00:26:16;;;;;;;26.88;14.65;;;;;;;;;;5091916;28;20044;-77
2023/12/13 00:28:42;;;;;;;;;;;7.90;99.90;;;;;;5092363;28;20164;-77
2023/12/13 00:31:08;;;;;;;23.60;13.32;;;;;;;;;;5091367;28;19933;-77
2023/12/13 00:33:35;;;;;;;22.23;13.48;;;;;;;;;;5091887;28;20044;-77
2023/12/13 00:36:01;;;;;;;22.33;13.20;;;;;;;;;;5092746;28;20036;-78
2023/12/13 00:38:27;;;;;;;25.35;14.40;;;;;;;;;;5091792;28;20418;-77
2023/12/13 00:40:53;;;;;;;21.77;12.85;;;;;;;;;;5091910;28;20028;-78
2023/12/13 00:43:19;;;;;;;22.70;12.95;;;;;;;;;;5075003;28;20048;-78
2023/12/13 00:45:45;;;;;;;19.60;12.57;;;;;;;;;;5091363;28;20036;-77
2023/12/13 00:48:11;;;;;;;22.85;13.07;;;;;;;;;;5091350;28;20500;-77
2023/12/13 00:50:37;;;;;;;23.73;13.60;;;;;;;;;;5091732;28;20368;-77
2023/12/13 00:53:03;;;;;;;22.30;13.45;;;;;;;;;;5074038;28;20074;-77
2023/12/13 00:55:29;;;;;;;22.77;13.15;;;;;;;;;;5074562;28;20522;-77
2023/12/13 00:57:55;;;;;;;19.55;13.20;;;;;;;;;;5091706;28;20080;-77
2023/12/13 01:00:22;;;;;;;20.00;12.40;;;;;;;;;;5091863;28;20502;-78
2023/12/13 01:02:48;;;;;;;21.17;12.30;;;;;;;;;;5091299;28;20044;-77
2023/12/13 01:05:15;;;;;;;22.60;12.85;;;;;;;;;;5091742;28;20048;-77
2023/12/13 01:07:41;;;;;;;20.58;12.75;;;;;;;;;;5100954;28;20079;-77
2023/12/13 01:10:08;;;;;;;21.00;12.93;;;;;;;;;;5093142;28;20047;-78
2023/12/13 01:12:34;;;;;;;21.55;12.98;;;;;;;;;;5092260;28;20429;-78
2023/12/13 01:15:00;;;;;;;20.88;12.73;;;;;;;;;;5091566;28;20032;-77
2023/12/13 01:17:26;;;;;;;19.98;12.52;;;;;;;;;;5089991;28;20098;-78
2023/12/13 01:19:52;;;;;;;22.35;13.18;;;;;;;;;;5091612;28;20040;-78
2023/12/13 01:22:19;;;;;;;23.67;12.88;;;;;;;;;;5091396;28;20122;-77
2023/12/13 01:24:45;;;;;;;20.90;12.57;;;;;;;;;;5092828;28;20472;-78
2023/12/13 01:27:11;;;;;;;19.83;11.88;;;;;;;;;;5091298;28;20071;-78
2023/12/13 01:29:37;;;;;;;20.15;12.07;;;;;;;;;;5091503;28;20082;-78
2023/12/13 01:32:03;;;;;;;18.60;12.10;;;;;;;;;;5091334;28;20131;-78
2023/12/13 01:34:30;;;;;;;19.08;11.88;;;;;;;;;;5090969;28;20118;-78
2023/12/13 01:36:56;;;;;;;20.20;11.27;;;;;;;;;;5091015;28;20036;-77
2023/12/13 01:39:24;;;;;;;20.17;12.27;;;;;;;;;;5091277;28;20441;-78
2023/12/13 01:41:50;;;;;;;19.60;11.43;;;;;;;;;;5091248;28;20043;-77
2023/12/13 01:44:16;;;;;;;20.10;12.45;;;;;;;;;;5094423;28;20522;-78
2023/12/13 01:46:42;;;;;;;20.92;12.18;;;;;;;;;;5095250;28;20039;-77
2023/12/13 01:49:09;;;;;;;19.48;11.35;;;;;;;;;;5077615;28;20032;-78
2023/12/13 01:51:39;;;;;;;17.10;11.57;;;;;;;;;;5078354;28;20040;-77
2023/12/13 01:54:06;;;;;;;20.60;11.95;;;;;;;;;;5093991;28;20048;-77
2023/12/13 01:56:33;;;;;;;20.10;11.75;;;;;;;;;;5094919;28;20049;-78
2023/12/13 01:58:59;;;;;;;20.00;11.40;;;;;;;;;;5094953;28;20043;-77
2023/12/13 02:01:25;;;;;;;19.67;11.07;;;;;;;;;;5094754;28;20042;-77
2023/12/13 02:03:51;;;;;;;16.30;10.80;;;;;;;;;;5094316;28;20519;-78
2023/12/13 02:06:17;;;;;;;20.35;10.65;;;;;;;;;;5094754;28;20040;-78
2023/12/13 02:08:43;;;;;;;17.08;10.70;;;;;;;;;;5094872;28;20113;-78
2023/12/13 02:11:09;;;;;;;19.17;10.07;;;;;;;;;;5094643;28;20123;-78
2023/12/13 02:13:36;;;;;;;17.52;10.60;;;;;;;;;;5097103;28;20055;-77
2023/12/13 02:16:02;;;;;;;16.17;10.77;;;;;;;;;;5098042;28;20111;-77
2023/12/13 02:18:29;;;;;;;16.10;9.82;;;;;;;;;;5097852;28;20036;-77
2023/12/13 02:20:55;;;;;;;17.25;10.75;;;;;;;;;;5095877;28;20040;-78
2023/12/13 02:23:21;;;;;;;20.77;10.07;;;;;;;;;;5094860;28;20055;-77
2023/12/13 02:25:56;;;;;;;17.25;10.63;;;;;;;;;;5077268;28;20043;-78
2023/12/13 02:28:24;;;;;;;17.83;10.43;;;;;;;;;;5094178;28;20123;-78
2023/12/13 02:30:50;;;;;;;20.30;10.52;;;;;;;;;;5074076;28;20047;-78
2023/12/13 02:33:16;;;;;;;18.05;9.48;;;;;;;;;;5084819;28;20055;-78
2023/12/13 02:35:43;;;;;;;14.00;9.82;;;;;;;;;;5093692;28;20043;-78
2023/12/13 02:38:09;;;;;;;19.23;9.15;;;;;;;;;;5077471;28;20040;-78
2023/12/13 02:40:35;;;;;;;17.35;10.07;;;;;;;;;;5093512;28;20032;-78
2023/12/13 02:43:01;;;;;;;13.30;9.13;;;;;;;;;;5093600;28;20070;-78
2023/12/13 02:45:27;;;;;;;17.20;9.27;;;;;;;;;;5093533;28;20404;-78
2023/12/13 02:47:53;;;;;;;19.17;10.23;;;;;;;;;;5093946;28;20105;-77
2023/12/13 02:50:19;;;;;;;18.58;10.25;;;;;;;;;;5076450;28;20036;-77
2023/12/13 02:52:45;;;;;;;16.23;9.18;;;;;;;;;;5093029;28;20235;-78
2023/12/13 02:55:12;;;;;;;15.55;10.40;;;;;;;;;;5092719;28;20101;-78
2023/12/13 02:57:38;;;;;;;17.38;10.57;;;;;;;;;;5094094;28;20036;-78
2023/12/13 03:00:06;;;;;;;21.63;11.25;;;;;;;;;;5093383;28;20080;-78
2023/12/13 03:02:33;;;;;;;17.88;11.82;;;;;;;;;;5093932;28;20044;-78
2023/12/13 03:05:00;;;;;;;17.75;10.82;;;;;;;;;;5093337;28;20032;-78
2023/12/13 03:07:27;;;;;;;16.42;10.70;;;;;;;;;;5094998;28;20044;-78
2023/12/13 03:09:53;;;;;;;20.45;10.65;;;;;;;;;;5093223;28;20092;-78
2023/12/13 03:12:19;;;;;;;20.27;12.30;;;;;;;;;;5093651;28;20039;-78
2023/12/13 03:14:45;;;;;;;24.50;11.90;;;;;;;;;;5093481;28;20506;-77
2023/12/13 03:17:12;;;;;;;19.08;11.68;;;;;;;;;;5103465;28;20040;-78
2023/12/13 03:19:38;;;;;;;20.88;12.13;;;;;;;;;;5093461;28;20517;-78
2023/12/13 03:22:04;;;;;;;16.75;11.02;;;;;;;;;;5076370;28;20400;-78
2023/12/13 03:24:30;;;;;;;15.18;9.73;;;;;;;;;;5094520;28;20048;-78
2023/12/13 03:26:56;;;;;;;21.27;11.82;;;;;;;;;;5076067;28;20472;-77
2023/12/13 03:29:23;;;;;;;20.38;11.43;;;;;;;;;;5093430;28;20055;-78
2023/12/13 03:31:49;;;;;;;20.98;11.88;;;;;;;;;;5092797;28;20097;-78
2023/12/13 03:34:15;;;;;;;16.75;11.15;;;;;;;;;;5109807;28;20048;-78
2023/12/13 03:36:41;;;;;;;17.25;10.63;;;;;;;;;;5092705;28;20047;-78
2023/12/13 03:39:07;;;;;;;16.98;10.82;;;;;;;;;;5092833;28;20044;-77
2023/12/13 03:41:34;;;;;;;17.83;10.98;;;;;;;;;;5092643;28;20135;-78
2023/12/13 03:44:00;;;;;;;17.52;11.10;;;;;;;;;;5094386;28;20096;-78
2023/12/13 03:46:26;;;;;;;18.02;10.55;;;;;;;;;;5093810;28;20036;-77
2023/12/13 03:48:52;;;;;;;18.85;10.57;;;;;;;;;;5092700;28;20094;-78
2023/12/13 03:51:19;;;;;;;17.50;10.50;;;;;;;;;;5092442;28;20117;-78
2023/12/13 03:53:45;;;;;;;16.58;10.80;;;;;;;;;;5092658;28;20489;-77
2023/12/13 03:56:11;;;;;;;25.23;10.30;;;;;;;;;;5092454;28;20047;-77
2023/12/13 03:58:38;;;;;;;18.55;10.88;;;;;;;;;;5092419;28;20036;-70
2023/12/13 04:01:04;;;;;;;23.13;11.25;;;;;;;;;;5075911;28;20128;-70
2023/12/13 04:03:31;;;;;;;19.13;11.10;;;;;;;;;;5092347;28;20039;-70
2023/12/13 04:05:57;;;;;;;21.73;11.18;;;;;;;;;;5091583;28;20097;-70
2023/12/13 04:08:23;;;;;;;21.73;10.68;;;;;;;;;;5093004;28;20040;-70
2023/12/13 04:10:49;;;;;;;17.33;10.30;;;;;;;;;;5075616;28;20055;-70
2023/12/13 04:13:15;;;;;;;18.17;11.20;;;;;;;;;;5075336;28;20083;-70
2023/12/13 04:15:42;;;;;;;15.27;10.00;;;;;;;;;;5092014;28;20044;-70
2023/12/13 04:18:08;;;;;;;20.77;10.43;;;;;;;;;;5092035;28;20047;-70
2023/12/13 04:20:34;;;;;;;18.30;11.23;;;;;;;;;;5092203;28;20036;-70
2023/12/13 04:23:00;;;;;;;17.50;10.80;;;;;;;;;;5091450;28;20039;-70
2023/12/13 04:25:26;;;;;;;19.13;11.30;;;;;;;;;;5092252;28;20047;-70
2023/12/13 04:27:52;;;;;;;19.48;11.15;;;;;;;;;;5071644;28;20125;-78
2023/12/13 04:30:18;;;;;;;20.40;11.95;;;;;;;;;;5092019;28;20046;-78
2023/12/13 04:32:44;;;;;;;19.00;12.48;;;;;;;;;;5091464;28;20043;-77
2023/12/13 04:35:11;;;;;;;17.80;11.10;;;;;;;;;;5074711;28;20093;-78
2023/12/13 04:37:38;;;;;;;20.55;10.82;;;;;;;;;;5091338;28;20044;-78
2023/12/13 04:40:04;;;;;;;16.45;10.77;;;;;;;;;;5091794;28;20391;-77
2023/12/13 04:42:30;;;;;;;19.10;11.95;;;;;;;;;;5093174;28;20039;-78
2023/12/13 04:44:56;;;;;;;19.92;10.93;;;;;;;;;;5091521;28;20122;-78
2023/12/13 04:47:22;;;;;;;18.55;11.50;;;;;;;;;;5091255;28;20488;-78
2023/12/13 04:49:48;;;;;;;23.35;11.80;;;;;;;;;;5074630;28;20052;-78
2023/12/13 04:52:15;;;;;;;22.88;11.73;;;;;;;;;;5074760;28;20068;-78
2023/12/13 04:54:41;;;;;;;19.95;11.95;;;;;;;;;;5091432;28;20515;-78
2023/12/13 04:57:08;;;;;;;19.00;11.45;;;;;;;;;;5075220;28;20032;-78
2023/12/13 04:59:34;;;;;;;21.33;11.52;;;;;;;;;;5091668;28;20088;-77
2023/12/13 05:02:00;;;;;;;22.42;11.15;;;;;;;;;;5091769;28;20064;-78
2023/12/13 05:04:28;;;;;;;19.77;11.63;;;;;;;;;;5092469;28;20040;-78
2023/12/13 05:06:55;;;;;;;18.63;11.40;;;;;;;;;;5095008;28;20491;-78
2023/12/13 05:09:21;;;;;;;21.67;12.50;;;;;;;;;;5096454;28;20044;-77
2023/12/13 05:11:47;;;;;;;17.58;11.15;;;;;;;;;;5096698;28;20079;-77
2023/12/13 05:14:14;;;;;;;16.92;11.55;;;;;;;;;;5074105;28;20045;-77
2023/12/13 05:16:40;;;;;;;20.40;12.00;;;;;;;;;;5092828;28;20048;-70
2023/12/13 05:19:06;;;;;;;21.13;12.68;;;;;;;;;;5095226;28;20040;-70
2023/12/13 05:21:32;;;;;;;20.88;12.18;;;;;;;;;;5095563;28;20036;-70
2023/12/13 05:23:59;;;;;;;20.70;11.90;;;;;;;;;;5095301;28;20054;-70
2023/12/13 05:26:25;;;;;;;18.65;12.32;;;;;;;;;;5095315;28;20109;-70
2023/12/13 05:28:51;;;;;;;20.50;11.85;;;;;;;;;;5078393;28;20048;-70
2023/12/13 05:31:21;;;;;;;19.70;12.52;;;;;;;;;;5095281;28;20041;-70
2023/12/13 05:33:47;;;;;;;19.25;12.43;;;;;;;;;;5088508;28;20515;-70
2023/12/13 05:36:13;;;;;;;19.67;12.18;;;;;;;;;;5094283;28;20032;-71
2023/12/13 05:38:40;;;;;;;22.20;12.23;;;;;;;;;;5095240;28;20130;-70
2023/12/13 05:41:06;;;;;;;17.63;11.40;;;;;;;;;;5094822;28;20093;-70
2023/12/13 05:43:35;;;;;;;20.73;12.55;;;;;;;;;;5094380;28;20484;-70
2023/12/13 05:46:01;;;;;;;21.15;12.40;;;;;;;;;;5095032;28;20059;-70
2023/12/13 05:48:27;;;;;;;19.52;12.80;;;;;;;;;;5094930;28;20036;-70
2023/12/13 05:50:56;;;;;;;21.70;10.82;;;;;;;;;;5095931;28;20064;-70
2023/12/13 05:53:22;;;;;;;23.55;13.23;;;;;;;;;;5094787;28;20088;-70
2023/12/13 05:55:48;;;;;;;19.50;12.35;;;;;;;;;;5093937;28;20137;-70
2023/12/13 05:58:14;;;;;;;22.33;12.63;;;;;;;;;;5094583;28;20032;-70
2023/12/13 06:00:41;;;;;;;19.83;12.43;;;;;;;;;;5077782;28;20040;-71
2023/12/13 06:03:07;;;;;;;18.40;11.68;;;;;;;;;;5094559;28;20480;-71
2023/12/13 06:05:33;;;;;;;21.70;13.60;;;;;;;;;;5094393;28;20040;-70
2023/12/13 06:07:59;;;;;;;23.20;13.88;;;;;;;;;;5094562;28;20040;-70
2023/12/13 06:10:25;;;;;;;21.15;13.10;;;;;;;;;;5077503;28;20040;-70
2023/12/13 06:12:52;;;;;;;22.70;12.10;;;;;;;;;;5077727;28;20115;-70
2023/12/13 06:15:19;;;;;;;23.33;13.88;;;;;;;;;;5094380;28;20040;-71
2023/12/13 06:17:45;;;;;;;20.80;11.93;;;;;;;;;;5094207;28;20055;-70
2023/12/13 06:20:11;;;;;;;26.75;13.45;;;;;;;;;;5094445;28;20166;-70
2023/12/13 06:22:38;;;;;;;21.65;13.48;;;;;;;;;;5077175;28;20040;-70
2023/12/13 06:25:04;;;;;;;29.88;13.25;;;;;;;;;;5093881;28;20051;-71
2023/12/13 06:27:30;;;;;;;24.60;13.77;;;;;;;;;;5095436;28;20548;-70
2023/12/13 06:29:56;;;;;;;23.88;14.20;;;;;;;;;;5093380;28;20028;-70
2023/12/13 06:32:22;;;;;;;24.30;12.85;;;;;;;;;;5093936;28;20169;-70
2023/12/13 06:34:48;;;;;;;34.83;14.73;;;;;;;;;;5093410;28;20384;-70
2023/12/13 06:37:14;;;;;;;27.70;14.10;;;;;;;;;;5093551;28;20040;-70
2023/12/13 06:39:40;;;;;;;23.45;13.00;;;;;;;;;;5093659;28;20480;-70
2023/12/13 06:42:09;;;;;;;27.50;14.38;;;;;;;;;;5094232;28;20065;-70
2023/12/13 06:44:39;;;;;;;28.08;14.18;;;;;;;;;;5076482;28;20048;-70
2023/12/13 06:47:06;;;;;;;25.95;13.60;;;;;;;;;;5094013;28;20050;-78
2023/12/13 06:49:34;;;;;;;32.15;15.00;;;;;;;;;;5110790;28;20048;-78
2023/12/13 06:52:00;;;;;;;27.63;13.80;;;;;;;;;;5092766;28;20056;-78
2023/12/13 06:54:28;;;;;;;26.13;13.65;;;;;;;;;;5093654;28;20454;-78
2023/12/13 06:56:54;;;;;;;23.77;12.73;;;;;;;;;;5093850;28;20059;-78
2023/12/13 06:59:20;;;;;;;28.35;13.20;;;;;;;;;;5094107;28;20047;-78
2023/12/13 07:01:46;;;;;;;27.75;14.27;;;;;;;;;;5093683;28;20071;-77
2023/12/13 07:04:13;;;;;;;31.67;14.27;;;;;;;;;;5093455;28;20044;-78
2023/12/13 07:06:39;;;;;;;27.77;13.38;;;;;;;;;;5094813;28;20094;-78
2023/12/13 07:09:05;;;;;;;24.42;13.57;;;;;;;;;;5094028;28;20032;-79
2023/12/13 07:11:31;;;;;;;30.67;14.18;;;;;;;;;;5099122;28;20036;-78
2023/12/13 07:13:57;;;;;;;26.00;13.55;;;;;;;;;;5077590;28;20047;-79
2023/12/13 07:16:23;;;;;;;26.20;13.07;;;;;;;;;;5093184;28;20036;-78
2023/12/13 07:18:50;;;;;;;29.05;13.95;;;;;;;;;;5073020;28;20036;-78
2023/12/13 07:21:16;;;;;;;24.02;14.27;;;;;;;;;;5091971;28;20036;-79
2023/12/13 07:23:42;;;;;;;28.58;13.40;;;;;;;;;;5092555;28;20043;-78
2023/12/13 07:26:08;;;;;;;30.27;14.45;;;;;;;;;;5093044;28;20069;-78
2023/12/13 07:28:35;;;;;;;29.08;14.38;;;;;;;;;;5075990;28;20044;-78
2023/12/13 07:31:04;;;;;;;25.73;13.88;;;;;;;;;;5093049;28;20048;-78
2023/12/13 07:33:31;;;;;;;29.95;14.30;;;;;;;;;;5092795;28;20052;-78
2023/12/13 07:35:57;;;;;;;26.23;14.35;;;;;;;;;;5092465;28;20472;-78
2023/12/13 07:38:24;;;;;;;33.85;14.70;;;;;;;;;;5092733;28;20036;-78
2023/12/13 07:40:50;;;;;;;24.38;13.23;;;;;;;;;;5074894;28;20476;-78
2023/12/13 07:43:17;;;;;;;27.42;13.90;;;;;;;;;;5092275;28;20075;-78
2023/12/13 07:45:43;;;;;;;31.17;15.10;;;;;;;;;;5092465;28;20043;-79
2023/12/13 07:48:09;;;;;;;25.92;13.68;;;;;;;;;;5092453;28;20047;-79
2023/12/13 07:50:35;;;;;;;27.10;13.82;;;;;;;;;;5092716;28;20118;-78
2023/12/13 07:53:01;;;;;;;27.35;13.48;;;;;;;;;;5092122;28;20151;-78
2023/12/13 07:55:28;;;;;;;27.33;14.13;;;;;;;;;;5092153;28;20097;-78
2023/12/13 07:57:54;;;;;;;27.95;14.52;;;;;;;;;;5092612;28;20036;-78
2023/12/13 08:00:20;;;;;;;37.80;16.55;;;;;;;;;;5092218;28;20334;-78
2023/12/13 08:02:46;;;;;;;31.60;15.98;;;;;;;;;;5093490;28;20182;-79
2023/12/13 08:05:13;;;;;;;24.80;15.00;;;;;;;;;;5092298;28;20063;-78
2023/12/13 08:07:39;;;;;;;31.58;15.10;;;;;;;;;;5092651;28;20047;-78
2023/12/13 08:10:09;;;;;;;29.05;14.45;;;;;;;;;;5092097;28;20051;-78
2023/12/13 08:12:35;;;;;;;24.73;14.35;;;;;;;;;;5092368;28;20040;-78
2023/12/13 08:15:01;;;;;;;23.13;14.15;;;;;;;;;;5075216;28;20043;-78
2023/12/13 08:17:29;;;;;;;26.80;14.80;;;;;;;;;;5091408;28;20079;-78
2023/12/13 08:19:55;;;;;;;31.52;14.80;;;;;;;;;;5090706;28;20468;-78
2023/12/13 08:22:21;;;;;;;31.08;14.57;;;;;;;;;;5096672;28;20044;-78
2023/12/13 08:24:48;;;;;;;27.73;14.57;;;;;;;;;;5083405;28;20044;-78
2023/12/13 08:27:14;;;;;;;28.52;14.75;;;;;;;;;;5097255;28;20051;-78
2023/12/13 08:29:40;;;;;;;26.42;14.50;;;;;;;;;;5096221;28;20453;-78
2023/12/13 08:32:07;;;;;;;23.20;13.70;;;;;;;;;;5091915;28;20119;-78
2023/12/13 08:34:33;;;;;;;23.25;14.15;;;;;;;;;;5091353;28;20052;-78
2023/12/13 08:37:00;;;;;;;25.30;14.50;;;;;;;;;;5091991;28;20036;-78
2023/12/13 08:39:27;;;;;;;23.45;13.07;;;;;;;;;;5091790;28;20166;-78
2023/12/13 08:41:53;;;;;;;26.35;13.95;;;;;;;;;;5091698;28;20097;-78
2023/12/13 08:44:19;;;;;;;25.48;14.43;;;;;;;;;;5074393;28;20040;-78
2023/12/13 08:46:46;;;;;;;29.00;15.23;;;;;;;;;;5091983;28;20479;-78
2023/12/13 08:49:12;;;;;;;28.15;14.57;;;;;;;;;;5062346;28;20133;-78
2023/12/13 08:51:38;;;;;;;30.23;15.10;;;;;;;;;;5091653;28;20043;-78
2023/12/13 08:54:04;;;;;;;25.27;14.10;;;;;;;;;;5091818;28;20040;-78
2023/12/13 08:56:31;;;;;;;25.17;14.35;;;;;;;;;;5075410;28;20151;-78
2023/12/13 08:58:58;;;;;;;26.05;16.17;;;;;;;;;;5092090;28;20089;-79
2023/12/13 09:01:24;;;;;;;29.70;15.20;;;;;;;;;;5104561;28;20036;-78
2023/12/13 09:03:53;;;;;;;26.45;14.90;;;;;;;;;;5111973;28;20040;-78
2023/12/13 09:06:21;;;;;;;28.63;15.60;;;;;;;;;;5111810;28;20039;-78
2023/12/13 09:08:47;;;;;;;25.92;15.85;;;;;;;;;;5111866;28;20123;-78
2023/12/13 09:11:13;;;;;;;26.27;15.57;;;;;;;;;;5111927;28;20048;-78
2023/12/13 09:13:39;;;;;;;26.15;15.35;;;;;;;;;;5112305;28;20035;-78
2023/12/13 09:16:05;;;;;;;25.40;16.38;;;;;;;;;;5104082;28;20067;-78
2023/12/13 09:18:31;;;;;;;27.52;15.15;;;;;;;;;;5091555;28;20119;-78
2023/12/13 09:20:58;;;;;;;27.25;15.45;;;;;;;;;;5093069;28;20040;-78
2023/12/13 09:23:24;;;;;;;28.77;15.60;;;;;;;;;;5074716;28;20140;-78
2023/12/13 09:25:51;;;;;;;26.83;14.73;;;;;;;;;;5081929;28;20040;-78
2023/12/13 09:28:17;;;;;;;27.08;14.95;;;;;;;;;;5063921;28;20037;-78
2023/12/13 09:30:44;;;;;;;26.42;15.18;;;;;;;;;;5085743;28;20047;-78
2023/12/13 09:33:11;;;;;;;31.20;15.65;;;;;;;;;;5077977;28;20481;-78
2023/12/13 09:35:38;;;;;;;30.42;15.30;;;;;;;;;;5074296;28;20040;-78
2023/12/13 09:38:04;;;;;;;29.27;16.17;;;;;;;;;;5091487;28;20044;-78
2023/12/13 09:40:31;;;;;;;29.65;17.05;;;;;;;;;;5091525;28;20373;-77
2023/12/13 09:42:57;;;;;;;30.88;16.50;;;;;;;;;;5091192;28;20051;-78
2023/12/13 09:45:24;;;;;;;31.08;16.33;;;;;;;;;;5074541;28;20154;-77
2023/12/13 09:47:51;;;;;;;27.70;16.90;;;;;;;;;;5090870;28;20052;-78
2023/12/13 09:50:18;;;;;;;31.63;17.15;;;;;;;;;;5091457;28;20044;-77
2023/12/13 09:52:44;;;;;;;30.98;16.88;;;;;;;;;;5090675;28;20060;-78
2023/12/13 09:55:11;;;;;;;40.90;17.48;;;;;;;;;;5091250;28;20044;-78
2023/12/13 09:57:37;;;;;;;30.88;16.75;;;;;;;;;;5091210;28;20115;-79
2023/12/13 10:00:05;;;;;;;36.30;19.05;;;;;;;;;;5091336;28;20392;-78
2023/12/13 10:02:32;;;;;;;32.47;17.67;;;;;;;;;;5091120;28;20048;-72
2023/12/13 10:05:01;;;;;;;32.67;17.70;;;;;;;;;;5094296;28;20040;-72
2023/12/13 10:07:30;;;;;;;29.52;16.65;;;;;;;;;;5094726;28;20040;-72
2023/12/13 10:09:56;;;;;;;31.73;16.98;;;;;;;;;;5094443;28;20036;-72
2023/12/13 10:12:23;;;;;;;33.35;18.55;;;;;;;;;;5094675;28;20052;-72
2023/12/13 10:14:49;;;;;;;35.55;17.38;;;;;;;;;;5094655;28;20441;-72
2023/12/13 10:17:15;;;;;;;36.17;18.17;;;;;;;;;;5094565;28;20047;-72
2023/12/13 10:19:41;;;;;;;37.13;19.27;;;;;;;;;;5098684;28;20120;-72
2023/12/13 10:22:08;;;;;;;40.85;18.92;;;;;;;;;;5114827;28;20046;-72
2023/12/13 10:24:35;;;;;;;37.40;19.15;;;;;;;;;;5114653;28;20114;-72
2023/12/13 10:27:02;;;;;;;33.17;18.05;;;;;;;;;;5081001;28;20050;-72
2023/12/13 10:29:30;;;;;;;34.97;18.23;;;;;;;;;;5096436;28;20101;-72
2023/12/13 10:31:57;;;;;;;32.75;18.20;;;;;;;;;;5077870;28;20403;-72
2023/12/13 10:34:23;;;;;;;35.03;18.67;;;;;;;;;;5094046;28;20127;-72
2023/12/13 10:36:49;;;;;;;39.00;18.45;;;;;;;;;;5093319;28;20077;-72
2023/12/13 10:39:16;;;;;;;31.83;18.60;;;;;;;;;;5093923;28;20091;-72
2023/12/13 10:41:44;;;;;;;36.47;18.42;;;;;;;;;;5093637;28;20487;-72
2023/12/13 10:44:18;;;;;;;37.28;19.08;;;;;;;;;;5094305;28;20052;-72
2023/12/13 10:46:47;;;;;;;38.92;18.95;;;;;;;;;;5110661;28;20046;-72
2023/12/13 10:49:16;;;;;;;43.42;18.75;;;;;;;;;;5093411;28;20036;-72
2023/12/13 10:51:44;;;;;;;39.33;19.27;;;;;;;;;;5093417;28;20127;-72
2023/12/13 10:54:15;;;;;;;38.47;19.85;;;;;;;;;;5084598;28;20040;-72
2023/12/13 10:56:42;;;;;;;43.42;19.52;;;;;;;;;;5092490;28;20074;-72
2023/12/13 10:59:11;;;;;;;34.95;17.63;;;;;;;;;;5093133;28;20032;-72
2023/12/13 11:01:39;;;;;;;42.05;19.63;;;;;;;;;;5093330;28;20040;-72
2023/12/13 11:04:12;;;;;;;43.63;19.70;;;;;;;;;;5110608;27;20052;-72
2023/12/13 11:06:38;;;;;;;;;;;8.70;99.90;;;;;;5093912;28;20051;-72
2023/12/13 11:09:09;;;;;;;41.03;19.10;;;;;;;;;;5093438;28;19927;-72
2023/12/13 11:11:36;;;;;;;40.30;19.13;;;;;;;;;;5109074;28;20059;-72
2023/12/13 11:14:02;;;;;;;38.63;18.15;;;;;;;;;;5093018;28;20051;-72
2023/12/13 11:16:28;;;;;;;37.75;17.83;;;;;;;;;;5093212;28;20036;-72
2023/12/13 11:18:58;;;;;;;34.15;17.42;;;;;;;;;;5093099;28;20316;-72
2023/12/13 11:21:29;;;;;;;33.70;18.17;;;;;;;;;;5093600;28;20063;-72
2023/12/13 11:23:58;;;;;;;31.30;16.05;;;;;;;;;;5070846;28;20039;-72
2023/12/13 11:26:27;;;;;;;30.58;16.83;;;;;;;;;;5092726;28;20052;-72
2023/12/13 11:28:54;;;;;;;33.95;16.60;;;;;;;;;;5093055;28;20048;-72
2023/12/13 11:31:24;;;;;;;33.72;16.77;;;;;;;;;;5091745;28;20063;-72
2023/12/13 11:33:50;;;;;;;32.65;16.30;;;;;;;;;;5091786;28;20032;-72
2023/12/13 11:36:20;;;;;;;34.17;17.33;;;;;;;;;;5074525;28;20047;-72
2023/12/13 11:38:47;;;;;;;33.33;16.77;;;;;;;;;;5091770;28;20392;-72
2023/12/13 11:41:14;;;;;;;34.22;17.65;;;;;;;;;;5074825;28;20143;-72
2023/12/13 11:43:41;;;;;;;27.88;16.17;;;;;;;;;;5092787;28;20391;-72
2023/12/13 11:46:07;;;;;;;33.08;16.55;;;;;;;;;;5092201;28;20438;-72
2023/12/13 11:48:33;;;;;;;32.75;15.35;;;;;;;;;;5075218;28;20044;-72
2023/12/13 11:50:59;;;;;;;30.42;16.30;;;;;;;;;;5092177;28;20044;-72
2023/12/13 11:53:25;;;;;;;29.23;15.63;;;;;;;;;;5081974;28;20512;-72
2023/12/13 11:55:52;;;;;;;35.97;16.70;;;;;;;;;;5082508;28;20055;-72
2023/12/13 11:58:18;;;;;;;29.50;15.68;;;;;;;;;;5084914;28;20033;-71
2023/12/13 12:00:44;;;;;;;30.98;15.73;;;;;;;;;;5080073;28;20067;-71
2023/12/13 12:03:10;;;;;;;29.23;15.75;;;;;;;;;;5091659;28;20104;-72
2023/12/13 12:05:36;;;;;;;32.25;15.52;;;;;;;;;;5092134;28;20044;-72
2023/12/13 12:08:06;;;;;;;29.20;16.77;;;;;;;;;;5092291;28;20123;-71
2023/12/13 12:10:33;;;;;;;31.00;16.60;;;;;;;;;;5091905;28;20532;-72
2023/12/13 12:13:00;;;;;;;29.73;15.85;;;;;;;;;;5091873;28;20043;-72
2023/12/13 12:15:27;;;;;;;24.27;13.90;;;;;;;;;;5091964;28;20044;-73
2023/12/13 12:17:54;;;;;;;25.40;13.88;;;;;;;;;;5075039;28;20487;-72
2023/12/13 12:20:21;;;;;;;26.15;14.10;;;;;;;;;;5074613;28;20036;-69
2023/12/13 12:22:47;;;;;;;25.27;13.93;;;;;;;;;;5075091;28;20116;-72
2023/12/13 12:25:13;;;;;;;22.10;13.43;;;;;;;;;;5091364;28;20098;-73
2023/12/13 12:27:49;;;;;;;22.70;13.35;;;;;;;;;;5092040;28;20446;-72
2023/12/13 12:30:17;;;;;;;24.30;12.95;;;;;;;;;;5093049;28;20040;-72
2023/12/13 12:32:43;;;;;;;28.95;14.93;;;;;;;;;;5091680;28;20047;-72
2023/12/13 12:35:09;;;;;;;28.15;15.43;;;;;;;;;;5091546;28;20388;-72
2023/12/13 12:37:35;;;;;;;33.10;15.18;;;;;;;;;;5091816;28;20055;-72
2023/12/13 12:40:03;;;;;;;32.88;15.73;;;;;;;;;;5091974;28;20209;-72
2023/12/13 12:42:29;;;;;;;33.70;16.27;;;;;;;;;;5091903;28;20176;-72
2023/12/13 12:44:55;;;;;;;34.20;15.98;;;;;;;;;;5091734;28;20040;-72
2023/12/13 12:47:21;;;;;;;37.78;16.55;;;;;;;;;;5092797;28;20484;-72
2023/12/13 12:49:47;;;;;;;41.17;16.52;;;;;;;;;;5104254;28;20118;-72
2023/12/13 12:52:14;;;;;;;40.70;15.32;;;;;;;;;;5112112;28;20101;-72
2023/12/13 12:54:40;;;;;;;40.55;13.57;;;;;;;;;;5082639;28;20094;-72
2023/12/13 12:57:06;;;;;;;43.85;16.08;;;;;;;;;;5082454;28;20115;-72
2023/12/13 12:59:32;;;;;;;39.88;15.55;;;;;;;;;;5083020;28;20035;-72
2023/12/13 13:01:58;;;;;;;34.47;14.00;;;;;;;;;;5091188;28;20039;-72
2023/12/13 13:04:25;;;;;;;35.17;14.50;;;;;;;;;;5091422;28;20135;-72
2023/12/13 13:06:51;;;;;;;36.15;15.05;;;;;;;;;;5091866;28;20189;-72
2023/12/13 13:09:18;;;;;;;31.65;14.60;;;;;;;;;;5091238;28;20372;-72
2023/12/13 13:11:44;;;;;;;33.45;14.40;;;;;;;;;;5091684;28;20109;-72
2023/12/13 13:14:11;;;;;;;38.10;14.85;;;;;;;;;;5091328;28;20051;-72
2023/12/13 13:16:37;;;;;;;30.73;15.18;;;;;;;;;;5091645;28;20045;-69
2023/12/13 13:19:05;;;;;;;28.95;13.95;;;;;;;;;;5091346;28;20497;-72
2023/12/13 13:21:32;;;;;;;35.60;15.05;;;;;;;;;;5091356;28;20043;-72
2023/12/13 13:23:58;;;;;;;30.00;14.27;;;;;;;;;;5091606;28;20130;-77
2023/12/13 13:26:25;;;;;;;30.52;15.02;;;;;;;;;;5091896;28;20040;-77
2023/12/13 13:28:51;;;;;;;33.75;16.30;;;;;;;;;;5091274;28;20476;-77
2023/12/13 13:31:17;;;;;;;29.60;14.75;;;;;;;;;;5091217;28;20544;-77
2023/12/13 13:33:47;;;;;;;33.92;15.80;;;;;;;;;;5074177;28;20489;-77
2023/12/13 13:36:13;;;;;;;32.80;14.90;;;;;;;;;;5090284;28;20036;-78
2023/12/13 13:38:39;;;;;;;32.95;15.00;;;;;;;;;;5092581;28;20403;-78
2023/12/13 13:41:06;;;;;;;30.58;16.27;;;;;;;;;;5095474;28;20093;-78
2023/12/13 13:43:32;;;;;;;31.52;15.27;;;;;;;;;;5095217;28;20122;-78
2023/12/13 13:45:58;;;;;;;34.60;17.40;;;;;;;;;;5114644;28;20089;-78
2023/12/13 13:48:26;;;;;;;31.45;16.02;;;;;;;;;;5099170;28;20388;-81
2023/12/13 13:50:52;;;;;;;32.95;15.60;;;;;;;;;;5097160;28;20051;-79
2023/12/13 13:53:18;;;;;;;28.40;14.40;;;;;;;;;;5077909;28;20473;-79
2023/12/13 13:55:47;;;;;;;37.05;16.75;;;;;;;;;;5097110;28;20059;-79
2023/12/13 13:58:14;;;;;;;33.78;15.93;;;;;;;;;;5074871;28;20048;-79
2023/12/13 14:00:40;;;;;;;29.73;14.27;;;;;;;;;;5090666;28;20481;-79
2023/12/13 14:03:06;;;;;;;30.83;14.82;;;;;;;;;;5095097;28;20392;-79
2023/12/13 14:05:35;;;;;;;33.22;14.38;;;;;;;;;;5094317;28;20040;-78
2023/12/13 14:08:06;;;;;;;33.00;13.65;;;;;;;;;;5094937;28;20128;-78
2023/12/13 14:10:32;;;;;;;42.58;12.57;;;;;;;;;;5095435;28;20066;-78
2023/12/13 14:12:58;;;;;;;34.72;11.80;;;;;;;;;;5096085;28;20047;-78
2023/12/13 14:15:24;;;;;;;21.83;10.30;;;;;;;;;;5094313;28;20044;-79